Time;durP1;ratioP1;P1;durP2;ratioP2;P2;SDS_P1;SDS_P2;PMS_P1;PMS_P2;Temp;Humidity;BMP_temperature;BMP_pressure;BME280_temperature;BME280_humidity;BME280_pressure;Samples;Min_cycle;Max_cycle;Signal;HPM_P1;HPM_P2
2023/02/07 00:00:11;;;;;;;1.07;0.97;;;-0.10;99.90;;;;;;5068982;28;20607;-86
2023/02/07 00:02:37;;;;;;;0.70;0.70;;;-0.10;99.90;;;;;;5068100;28;20229;-86
2023/02/07 00:05:03;;;;;;;0.97;0.93;;;0.00;99.90;;;;;;5033651;28;20638;-86
2023/02/07 00:07:29;;;;;;;0.87;0.87;;;0.00;99.90;;;;;;5049971;28;20271;-86
2023/02/07 00:09:56;;;;;;;0.80;0.80;;;-0.10;99.90;;;;;;5033092;28;20225;-86
2023/02/07 00:12:22;;;;;;;1.00;1.00;;;-0.10;99.90;;;;;;5049808;28;20185;-86
2023/02/07 00:14:47;;;;;;;1.43;1.43;;;0.00;99.90;;;;;;5050411;28;20548;-86
2023/02/07 00:17:13;;;;;;;1.23;1.23;;;0.20;99.90;;;;;;5049820;28;20237;-86
2023/02/07 00:19:39;;;;;;;1.50;1.00;;;0.30;99.90;;;;;;5067823;28;20225;-86
2023/02/07 00:22:05;;;;;;;1.47;1.37;;;0.40;99.90;;;;;;5016780;28;20221;-85
2023/02/07 00:24:31;;;;;;;0.67;0.67;;;0.40;99.90;;;;;;5049893;28;20524;-86
2023/02/07 00:26:56;;;;;;;0.70;0.70;;;0.30;99.90;;;;;;5034205;28;20184;-85
2023/02/07 00:29:22;;;;;;;1.30;1.27;;;0.20;99.90;;;;;;5050426;28;20262;-85
2023/02/07 00:31:48;;;;;;;0.60;0.60;;;0.20;99.90;;;;;;5034170;28;20213;-86
2023/02/07 00:34:14;;;;;;;0.93;0.93;;;0.20;99.90;;;;;;5068516;28;20217;-85
2023/02/07 00:36:41;;;;;;;2.20;1.30;;;0.20;99.90;;;;;;5068296;28;20220;-86
2023/02/07 00:39:11;;;;;;;0.50;0.50;;;0.20;99.90;;;;;;5051213;28;20182;-86
2023/02/07 00:41:37;;;;;;;0.93;0.93;;;0.30;99.90;;;;;;5050571;28;20691;-86
2023/02/07 00:44:03;;;;;;;1.00;1.00;;;0.40;99.90;;;;;;5050414;28;20720;-86
2023/02/07 00:46:29;;;;;;;1.03;1.03;;;0.60;99.90;;;;;;5067536;28;20213;-86
2023/02/07 00:48:55;;;;;;;1.57;1.47;;;0.80;99.90;;;;;;5067853;28;20213;-86
2023/02/07 00:51:24;;;;;;;1.60;1.60;;;0.80;99.90;;;;;;5053499;28;20530;-86
2023/02/07 00:53:52;;;;;;;1.33;1.33;;;0.90;99.90;;;;;;5053880;28;20618;-86
2023/02/07 00:56:19;;;;;;;1.07;1.00;;;0.90;99.90;;;;;;5053292;28;20597;-86
2023/02/07 00:58:44;;;;;;;1.63;1.53;;;0.90;99.90;;;;;;5070780;28;20262;-86
2023/02/07 01:01:11;;;;;;;1.27;1.17;;;0.90;99.90;;;;;;5019852;28;20244;-85
2023/02/07 01:03:37;;;;;;;1.20;1.20;;;0.70;99.90;;;;;;5070801;28;20221;-86
2023/02/07 01:06:03;;;;;;;1.00;1.00;;;0.60;99.90;;;;;;5071194;28;20676;-85
2023/02/07 01:08:29;;;;;;;1.77;1.33;;;0.40;99.90;;;;;;5052824;28;20580;-86
2023/02/07 01:10:55;;;;;;;1.67;1.53;;;0.40;99.90;;;;;;5036993;28;20227;-86
2023/02/07 01:13:21;;;;;;;1.60;1.57;;;0.50;99.90;;;;;;5036992;28;20205;-86
2023/02/07 01:15:47;;;;;;;0.90;0.90;;;0.90;99.90;;;;;;5036347;28;20197;-86
2023/02/07 01:18:14;;;;;;;1.73;1.63;;;1.10;99.90;;;;;;5071458;28;20180;-85
2023/02/07 01:20:40;;;;;;;2.00;1.87;;;1.20;99.90;;;;;;5020678;28;20217;-86
2023/02/07 01:23:06;;;;;;;1.27;1.27;;;1.30;99.90;;;;;;5052582;28;20845;-86
2023/02/07 01:25:33;;;;;;;6.40;2.30;;;1.30;99.90;;;;;;5070286;28;20217;-86
2023/02/07 01:27:58;;;;;;;1.03;1.03;;;1.10;99.90;;;;;;5070284;28;20217;-86
2023/02/07 01:30:24;;;;;;;3.40;2.03;;;1.00;99.90;;;;;;5035844;28;20631;-85
2023/02/07 01:32:50;;;;;;;1.43;1.43;;;1.00;99.90;;;;;;5070523;28;20185;-86
2023/02/07 01:35:16;;;;;;;0.70;0.70;;;1.10;99.90;;;;;;5036557;28;20216;-85
2023/02/07 01:37:41;;;;;;;14.53;1.93;;;1.00;99.90;;;;;;5036799;28;20214;-85
2023/02/07 01:40:08;;;;;;;0.97;0.97;;;1.20;99.90;;;;;;5071244;28;20658;-86
2023/02/07 01:42:34;;;;;;;5.50;1.87;;;1.20;99.90;;;;;;5053051;28;20451;-85
2023/02/07 01:45:04;;;;;;;1.10;1.10;;;1.30;99.90;;;;;;5020710;28;20633;-86
2023/02/07 01:47:31;;;;;;;1.80;1.70;;;1.30;99.90;;;;;;5052953;28;20213;-86
2023/02/07 01:49:58;;;;;;;0.60;0.60;;;1.30;99.90;;;;;;5052966;28;20229;-84
2023/02/07 01:52:32;;;;;;;2.53;2.40;;;1.30;99.90;;;;;;5052706;28;20220;-86
2023/02/07 01:55:02;;;;;;;3.20;1.40;;;1.30;99.90;;;;;;5070149;28;20203;-85
2023/02/07 01:57:29;;;;;;;2.93;1.73;;;1.30;99.90;;;;;;5069665;28;20253;-86
2023/02/07 01:59:57;;;;;;;2.07;1.87;;;1.40;99.90;;;;;;5035659;28;20273;-86
2023/02/07 02:02:27;;;;;;;1.73;1.63;;;1.40;99.90;;;;;;5050541;28;20314;-86
2023/02/07 02:04:53;;;;;;;12.90;2.53;;;1.40;99.90;;;;;;5069233;28;20213;-85
2023/02/07 02:07:20;;;;;;;13.83;1.33;;;1.40;99.90;;;;;;5070118;28;20689;-86
2023/02/07 02:09:46;;;;;;;1.80;1.70;;;1.30;99.90;;;;;;5070276;28;20240;-85
2023/02/07 02:12:24;;;;;;;3.47;1.40;;;1.30;99.90;;;;;;5020111;28;20177;-86
2023/02/07 02:15:02;;;;;;;1.57;1.47;;;1.30;99.90;;;;;;5052485;28;20208;-86
2023/02/07 02:17:55;;;;;;;1.63;1.53;;;1.40;99.90;;;;;;5070121;28;20255;-85
2023/02/07 02:20:35;;;;;;;0.57;0.57;;;1.40;99.90;;;;;;5052666;28;20721;-85
2023/02/07 02:23:38;;;;;;;2.20;2.10;;;1.40;99.90;;;;;;5051955;28;20866;-85
2023/02/07 02:26:44;;;;;;;2.50;2.40;;;1.40;99.90;;;;;;5052176;28;20295;-85
2023/02/07 02:29:32;;;;;;;1.03;1.03;;;1.40;99.90;;;;;;5052009;28;20216;-85
2023/02/07 02:32:36;;;;;;;0.57;0.57;;;1.30;99.90;;;;;;5069161;28;20217;-86
2023/02/07 02:35:09;;;;;;;1.20;1.20;;;1.30;99.90;;;;;;5051900;28;20254;-86
2023/02/07 02:37:53;;;;;;;2.00;1.90;;;1.30;99.90;;;;;;5070163;28;20739;-86
2023/02/07 02:40:35;;;;;;;1.57;1.47;;;1.40;99.90;;;;;;5069793;28;20290;-85
2023/02/07 02:43:17;;;;;;;1.27;1.27;;;1.20;99.90;;;;;;5051767;28;20229;-85
2023/02/07 02:45:47;;;;;;;3.07;2.77;;;1.30;99.90;;;;;;5070088;28;20580;-86
2023/02/07 02:48:14;;;;;;;1.10;1.00;;;1.20;99.90;;;;;;5070138;28;20178;-85
2023/02/07 02:50:45;;;;;;;3.73;3.00;;;1.20;99.90;;;;;;5069628;28;20241;-86
2023/02/07 02:53:13;;;;;;;0.50;0.50;;;1.20;99.90;;;;;;5035488;28;20271;-85
2023/02/07 02:56:11;;;;;;;2.20;1.63;;;1.20;99.90;;;;;;5051821;28;20220;-86
2023/02/07 02:58:52;;;;;;;2.00;1.90;;;1.10;99.90;;;;;;5025128;28;20213;-85
2023/02/07 03:01:27;;;;;;;2.03;1.83;;;1.20;99.90;;;;;;5051659;28;20308;-85
2023/02/07 03:04:34;;;;;;;1.90;1.80;;;1.20;99.90;;;;;;5051584;28;20677;-86
2023/02/07 03:07:22;;;;;;;1.93;1.83;;;1.20;99.90;;;;;;4988789;28;20284;-85
2023/02/07 03:10:02;;;;;;;1.27;1.27;;;1.20;99.90;;;;;;5069076;28;20228;-86
2023/02/07 03:12:59;;;;;;;0.90;0.90;;;1.10;99.90;;;;;;5051084;28;20209;-86
2023/02/07 03:15:43;;;;;;;1.23;1.23;;;1.10;99.90;;;;;;5069020;28;20181;-86
2023/02/07 03:18:24;;;;;;;2.17;2.07;;;1.10;99.90;;;;;;5051970;28;20178;-86
2023/02/07 03:21:06;;;;;;;2.97;2.10;;;1.10;99.90;;;;;;5068528;28;20209;-86
2023/02/07 03:23:33;;;;;;;0.67;0.60;;;1.10;99.90;;;;;;5050457;28;20205;-85
2023/02/07 03:26:00;;;;;;;0.83;0.83;;;1.10;99.90;;;;;;5050694;28;20724;-85
2023/02/07 03:28:29;;;;;;;2.47;2.27;;;1.10;99.90;;;;;;5034094;28;20205;-86
2023/02/07 03:31:00;;;;;;;2.20;1.77;;;1.00;99.90;;;;;;5051248;28;20217;-85
2023/02/07 03:33:27;;;;;;;0.93;0.93;;;1.10;99.90;;;;;;5050920;28;20619;-86
2023/02/07 03:36:07;;;;;;;1.73;1.63;;;1.00;99.90;;;;;;5034740;28;20192;-86
2023/02/07 03:38:34;;;;;;;2.03;1.67;;;1.00;99.90;;;;;;5050040;28;20217;-86
2023/02/07 03:41:06;;;;;;;3.33;1.63;;;1.00;99.90;;;;;;5017135;28;20240;-85
2023/02/07 03:43:37;;;;;;;2.47;2.37;;;1.00;99.90;;;;;;5050391;28;20217;-86
2023/02/07 03:46:03;;;;;;;1.97;1.87;;;1.00;99.90;;;;;;5067973;28;20228;-86
2023/02/07 03:48:28;;;;;;;1.20;1.20;;;1.00;99.90;;;;;;5034521;28;20178;-86
2023/02/07 03:50:54;;;;;;;5.70;1.83;;;1.00;99.90;;;;;;5035319;28;20273;-85
2023/02/07 03:53:20;;;;;;;1.87;1.77;;;1.00;99.90;;;;;;5034369;28;20296;-86
2023/02/07 03:55:46;;;;;;;1.00;1.00;;;1.00;99.90;;;;;;5051022;28;20213;-86
2023/02/07 03:58:12;;;;;;;2.83;1.33;;;1.00;99.90;;;;;;5050826;28;20213;-85
2023/02/07 04:00:38;;;;;;;1.70;1.20;;;1.00;99.90;;;;;;5034434;28;20722;-86
2023/02/07 04:03:04;;;;;;;4.60;4.23;;;0.90;99.90;;;;;;5051246;28;20205;-86
2023/02/07 04:05:30;;;;;;;15.57;1.53;;;0.90;99.90;;;;;;5018038;28;20309;-86
2023/02/07 04:07:56;;;;;;;3.03;1.80;;;0.90;99.90;;;;;;5051149;28;20222;-86
2023/02/07 04:10:22;;;;;;;2.70;2.40;;;0.90;99.90;;;;;;5034112;28;20810;-86
2023/02/07 04:12:47;;;;;;;5.93;1.97;;;0.90;99.90;;;;;;5050987;28;20233;-85
2023/02/07 04:15:13;;;;;;;6.70;2.03;;;0.90;99.90;;;;;;5034588;28;20235;-86
2023/02/07 04:17:39;;;;;;;1.30;1.30;;;0.90;99.90;;;;;;5034103;28;20221;-85
2023/02/07 04:20:05;;;;;;;6.53;1.37;;;0.90;99.90;;;;;;5068425;28;20233;-85
2023/02/07 04:22:31;;;;;;;1.40;1.40;;;0.80;99.90;;;;;;5050852;28;20563;-85
2023/02/07 04:24:57;;;;;;;2.73;1.47;;;0.90;99.90;;;;;;5052619;28;20224;-86
2023/02/07 04:27:23;;;;;;;0.90;0.90;;;0.80;99.90;;;;;;5054736;28;20189;-86
2023/02/07 04:29:49;;;;;;;3.30;1.97;;;0.80;99.90;;;;;;5055138;28;20276;-85
2023/02/07 04:32:15;;;;;;;3.70;3.07;;;0.80;99.90;;;;;;5021429;28;20304;-86
2023/02/07 04:34:40;;;;;;;1.43;1.20;;;0.60;99.90;;;;;;5054555;28;20220;-85
2023/02/07 04:37:06;;;;;;;2.97;1.53;;;0.60;99.90;;;;;;5054428;28;20819;-86
2023/02/07 04:39:32;;;;;;;2.60;1.93;;;0.60;99.90;;;;;;5037606;28;20211;-86
2023/02/07 04:41:58;;;;;;;1.60;1.60;;;0.60;99.90;;;;;;5038121;28;20300;-86
2023/02/07 04:44:23;;;;;;;2.20;2.00;;;0.60;99.90;;;;;;5021402;28;20701;-85
2023/02/07 04:46:49;;;;;;;2.43;2.13;;;0.50;99.90;;;;;;5071862;28;20589;-85
2023/02/07 04:49:15;;;;;;;1.30;1.20;;;0.50;99.90;;;;;;5037543;28;20580;-85
2023/02/07 04:51:41;;;;;;;2.37;2.27;;;0.60;99.90;;;;;;5054040;28;20224;-85
2023/02/07 04:54:07;;;;;;;1.97;1.87;;;0.60;99.90;;;;;;5054549;28;20527;-85
2023/02/07 04:56:32;;;;;;;0.80;0.80;;;0.60;99.90;;;;;;5037288;28;20898;-86
2023/02/07 04:58:58;;;;;;;1.37;1.03;;;0.60;99.90;;;;;;5037493;28;20220;-85
2023/02/07 05:01:24;;;;;;;2.27;2.10;;;0.60;99.90;;;;;;5037069;28;20229;-86
2023/02/07 05:03:49;;;;;;;1.10;1.10;;;0.50;99.90;;;;;;5037329;28;20209;-85
2023/02/07 05:06:15;;;;;;;2.17;2.00;;;0.60;99.90;;;;;;5037528;28;20653;-85
2023/02/07 05:08:41;;;;;;;4.13;2.07;;;0.60;99.90;;;;;;5053654;28;20227;-86
2023/02/07 05:11:07;;;;;;;3.33;2.90;;;0.50;99.90;;;;;;5053649;28;20679;-86
2023/02/07 05:13:33;;;;;;;5.97;5.43;;;0.50;99.90;;;;;;5037072;28;20308;-85
2023/02/07 05:16:02;;;;;;;3.87;3.57;;;0.40;99.90;;;;;;5020395;28;20503;-86
2023/02/07 05:18:27;;;;;;;1.17;1.10;;;0.40;99.90;;;;;;5070883;28;20208;-86
2023/02/07 05:20:53;;;;;;;1.37;1.37;;;0.40;99.90;;;;;;5037323;28;20446;-85
2023/02/07 05:23:19;;;;;;;1.50;1.50;;;0.40;99.90;;;;;;5020579;28;20332;-85
2023/02/07 05:25:47;;;;;;;1.00;1.00;;;0.40;99.90;;;;;;5071079;28;20220;-85
2023/02/07 05:28:13;;;;;;;4.80;2.53;;;0.40;99.90;;;;;;5071041;28;20858;-85
2023/02/07 05:30:39;;;;;;;3.97;2.30;;;0.40;99.90;;;;;;5037183;28;20282;-85
2023/02/07 05:33:05;;;;;;;5.70;2.50;;;0.40;99.90;;;;;;5020750;28;20635;-86
2023/02/07 05:35:53;;;;;;;3.63;2.77;;;0.40;99.90;;;;;;5053392;28;20250;-86
2023/02/07 05:38:19;;;;;;;2.03;1.93;;;0.30;99.90;;;;;;5053088;28;20362;-85
2023/02/07 05:40:46;;;;;;;11.20;3.20;;;0.40;99.90;;;;;;5053502;28;20281;-86
2023/02/07 05:43:12;;;;;;;4.83;3.30;;;0.30;99.90;;;;;;5036807;28;20246;-87
2023/02/07 05:45:39;;;;;;;2.93;2.70;;;0.30;99.90;;;;;;5053161;28;20225;-85
2023/02/07 05:48:05;;;;;;;2.57;2.37;;;0.30;99.90;;;;;;5037151;28;20177;-85
2023/02/07 05:50:31;;;;;;;4.00;3.70;;;0.40;99.90;;;;;;5070572;28;20206;-85
2023/02/07 05:52:57;;;;;;;4.50;1.93;;;0.40;99.90;;;;;;5052538;28;20252;-84
2023/02/07 05:55:22;;;;;;;8.30;2.60;;;0.40;99.90;;;;;;5052094;28;20314;-85
2023/02/07 05:57:48;;;;;;;2.30;2.20;;;0.40;99.90;;;;;;5035403;28;20274;-85
2023/02/07 06:00:17;;;;;;;1.27;1.27;;;0.40;99.90;;;;;;5036432;28;20181;-85
2023/02/07 06:02:43;;;;;;;5.47;3.20;;;0.40;99.90;;;;;;5052241;28;20229;-85
2023/02/07 06:05:15;;;;;;;4.20;4.00;;;0.30;99.90;;;;;;5052476;28;20869;-86
2023/02/07 06:07:43;;;;;;;9.03;3.83;;;0.30;99.90;;;;;;5049984;28;20670;-85
2023/02/07 06:10:09;;;;;;;2.60;2.40;;;0.30;99.90;;;;;;5051730;28;20381;-85
2023/02/07 06:12:35;;;;;;;2.60;2.40;;;0.30;99.90;;;;;;5052608;28;20185;-85
2023/02/07 06:15:01;;;;;;;2.20;2.10;;;0.20;99.90;;;;;;5052815;28;20209;-86
2023/02/07 06:17:27;;;;;;;5.00;3.47;;;0.20;99.90;;;;;;5019330;28;20255;-86
2023/02/07 06:19:53;;;;;;;1.67;1.57;;;0.20;99.90;;;;;;5035803;28;20221;-86
2023/02/07 06:22:18;;;;;;;2.87;1.77;;;0.10;99.90;;;;;;5052120;28;20278;-86
2023/02/07 06:24:44;;;;;;;1.80;1.80;;;0.10;99.90;;;;;;5069960;28;20654;-86
2023/02/07 06:27:11;;;;;;;2.63;1.90;;;0.10;99.90;;;;;;5059899;28;20572;-84
2023/02/07 06:29:36;;;;;;;1.47;1.37;;;0.10;99.90;;;;;;5069949;28;20739;-86
2023/02/07 06:32:02;;;;;;;3.03;1.93;;;0.10;99.90;;;;;;5052114;28;20229;-86
2023/02/07 06:34:28;;;;;;;5.53;3.67;;;0.10;99.90;;;;;;5034537;28;20229;-85
2023/02/07 06:36:54;;;;;;;2.57;1.37;;;0.10;99.90;;;;;;5018256;28;20252;-85
2023/02/07 06:39:20;;;;;;;5.33;3.17;;;0.10;99.90;;;;;;5051289;28;20181;-85
2023/02/07 06:41:45;;;;;;;1.87;1.63;;;0.00;99.90;;;;;;5035920;28;20220;-84
2023/02/07 06:44:11;;;;;;;2.97;1.60;;;0.00;99.90;;;;;;5051414;28;20221;-85
2023/02/07 06:46:37;;;;;;;1.57;1.57;;;0.00;99.90;;;;;;5067154;28;20217;-86
2023/02/07 06:49:03;;;;;;;6.13;2.53;;;-0.10;99.90;;;;;;5051414;28;20217;-86
2023/02/07 06:51:29;;;;;;;4.67;3.77;;;-0.10;99.90;;;;;;5035014;28;20375;-85
2023/02/07 06:53:54;;;;;;;3.47;2.53;;;-0.10;99.90;;;;;;5068155;28;20237;-86
2023/02/07 06:56:20;;;;;;;3.33;3.13;;;-0.20;99.90;;;;;;5024115;28;20224;-86
2023/02/07 06:58:46;;;;;;;4.30;2.90;;;-0.20;99.90;;;;;;5018818;28;20670;-83
2023/02/07 07:01:12;;;;;;;2.60;1.63;;;-0.20;99.90;;;;;;5051751;28;20694;-87
2023/02/07 07:03:37;;;;;;;3.10;2.90;;;-0.10;99.90;;;;;;5050778;28;20205;-84
2023/02/07 07:06:03;;;;;;;6.10;3.73;;;-0.10;99.90;;;;;;5068749;28;20180;-85
2023/02/07 07:08:29;;;;;;;3.57;3.07;;;-0.10;99.90;;;;;;5033288;28;20216;-84
2023/02/07 07:10:56;;;;;;;2.00;2.00;;;-0.10;99.90;;;;;;5032839;28;20274;-85
2023/02/07 07:13:21;;;;;;;6.07;4.97;;;-0.10;99.90;;;;;;5067928;28;20278;-85
2023/02/07 07:15:47;;;;;;;1.63;1.53;;;-0.10;99.90;;;;;;5017705;28;20217;-85
2023/02/07 07:18:13;;;;;;;3.73;3.43;;;-0.10;99.90;;;;;;5034519;28;20181;-84
2023/02/07 07:20:39;;;;;;;2.67;2.47;;;0.10;99.90;;;;;;5050483;28;20228;-84
2023/02/07 07:23:05;;;;;;;2.27;2.17;;;0.30;99.90;;;;;;5017227;28;20247;-83
2023/02/07 07:25:30;;;;;;;5.53;5.23;;;0.60;99.90;;;;;;5050454;28;20309;-84
2023/02/07 07:27:57;;;;;;;12.73;5.27;;;1.00;99.90;;;;;;5033688;28;20219;-84
2023/02/07 07:30:23;;;;;;;7.47;6.87;;;1.40;99.90;;;;;;5050191;28;20185;-83
2023/02/07 07:32:49;;;;;;;5.83;5.43;;;1.90;99.90;;;;;;5050827;28;20601;-84
2023/02/07 07:35:15;;;;;;;10.90;5.93;;;2.40;99.90;;;;;;5017589;28;20701;-85
2023/02/07 07:37:41;;;;;;;3.50;3.27;;;3.10;99.90;;;;;;5017217;28;20255;-85
2023/02/07 07:40:07;;;;;;;6.60;5.93;;;3.50;99.90;;;;;;5033372;28;20233;-85
2023/02/07 07:42:34;;;;;;;4.67;4.30;;;3.80;99.90;;;;;;5050194;28;20220;-85
2023/02/07 07:45:00;;;;;;;4.63;2.17;;;4.10;99.90;;;;;;5051265;28;20203;-83
2023/02/07 07:47:26;;;;;;;5.67;3.47;;;4.00;99.90;;;;;;5033029;28;20673;-84
2023/02/07 07:49:52;;;;;;;2.97;2.77;;;3.80;99.90;;;;;;5034011;28;20301;-85
2023/02/07 07:52:18;;;;;;;4.97;3.70;;;3.90;99.90;;;;;;5032977;28;20307;-84
2023/02/07 07:54:44;;;;;;;3.23;3.03;;;3.30;99.90;;;;;;5049666;28;20313;-85
2023/02/07 07:57:10;;;;;;;6.57;4.03;;;2.70;99.90;;;;;;5033470;28;20763;-85
2023/02/07 07:59:36;;;;;;;5.20;4.70;;;2.80;99.90;;;;;;5018218;28;20286;-84
2023/02/07 08:02:01;;;;;;;6.73;3.77;;;2.90;99.90;;;;;;5071473;28;20686;-84
2023/02/07 08:04:27;;;;;;;6.00;3.63;;;2.90;99.90;;;;;;5054185;28;20209;-84
2023/02/07 08:06:53;;;;;;;2.73;2.53;;;2.90;99.90;;;;;;5036417;28;20235;-85
2023/02/07 08:09:20;;;;;;;2.50;1.57;;;3.00;99.90;;;;;;5020331;28;20225;-85
2023/02/07 08:11:45;;;;;;;3.17;2.93;;;2.90;99.90;;;;;;5036917;28;20181;-85
2023/02/07 08:14:11;;;;;;;4.47;4.17;;;3.00;99.90;;;;;;5053223;28;20275;-87
2023/02/07 08:16:37;;;;;;;2.97;2.77;;;3.60;99.90;;;;;;5036959;28;20209;-85
2023/02/07 08:19:03;;;;;;;3.50;3.27;;;4.10;99.90;;;;;;5036715;28;20592;-86
2023/02/07 08:21:28;;;;;;;5.70;3.97;;;4.70;99.90;;;;;;5020483;28;20568;-86
2023/02/07 08:23:55;;;;;;;6.90;4.27;;;5.30;99.90;;;;;;5053678;28;20531;-85
2023/02/07 08:26:21;;;;;;;13.47;4.63;;;6.20;99.90;;;;;;5036503;28;20722;-85
2023/02/07 08:28:48;;;;;;;4.23;3.47;;;6.50;99.90;;;;;;5053030;28;20697;-85
2023/02/07 08:31:14;;;;;;;5.43;4.90;;;6.60;99.90;;;;;;5036247;28;20292;-85
2023/02/07 08:33:39;;;;;;;6.47;4.03;;;6.90;99.90;;;;;;5036096;28;20627;-84
2023/02/07 08:36:08;;;;;;;4.93;2.53;;;6.90;99.90;;;;;;5036600;28;20188;-85
2023/02/07 08:38:34;;;;;;;3.87;3.17;;;6.50;99.90;;;;;;5036995;28;20217;-85
2023/02/07 08:41:00;;;;;;;4.43;4.10;;;6.00;99.90;;;;;;5036191;28;20586;-84
2023/02/07 08:43:26;;;;;;;6.53;4.93;;;5.10;99.90;;;;;;5052472;28;20691;-85
2023/02/07 08:45:52;;;;;;;2.70;2.50;;;4.60;99.90;;;;;;5036288;28;20277;-85
2023/02/07 08:48:18;;;;;;;5.43;4.93;;;3.90;99.90;;;;;;5035881;28;20188;-86
2023/02/07 08:50:44;;;;;;;5.67;4.47;;;3.70;99.90;;;;;;5063478;28;20317;-85
2023/02/07 08:53:10;;;;;;;4.50;3.20;;;3.40;99.90;;;;;;5052475;28;20678;-85
2023/02/07 08:55:38;;;;;;;10.53;3.37;;;3.30;99.90;;;;;;5069823;28;20460;-85
2023/02/07 08:58:04;;;;;;;2.80;2.70;;;3.30;99.90;;;;;;5051901;28;20216;-86
2023/02/07 09:00:30;;;;;;;9.10;4.50;;;3.40;99.90;;;;;;5051772;28;20181;-86
2023/02/07 09:02:56;;;;;;;4.90;3.90;;;3.30;99.90;;;;;;5036314;28;20220;-85
2023/02/07 09:05:21;;;;;;;8.43;4.33;;;3.40;99.90;;;;;;5036021;28;20236;-85
2023/02/07 09:07:47;;;;;;;6.03;3.43;;;3.50;99.90;;;;;;5045026;28;20685;-86
2023/02/07 09:10:14;;;;;;;6.70;2.80;;;3.50;99.90;;;;;;5034141;28;20248;-85
2023/02/07 09:12:40;;;;;;;3.23;2.90;;;3.50;99.90;;;;;;5034657;28;20209;-86
2023/02/07 09:15:06;;;;;;;3.67;3.37;;;3.30;99.90;;;;;;5052041;28;20673;-85
2023/02/07 09:17:32;;;;;;;4.00;3.60;;;3.30;99.90;;;;;;5051359;28;20216;-85
2023/02/07 09:19:57;;;;;;;3.57;2.57;;;3.30;99.90;;;;;;5052090;28;20225;-84
2023/02/07 09:22:23;;;;;;;3.37;2.77;;;3.30;99.90;;;;;;5034947;28;20282;-85
2023/02/07 09:24:49;;;;;;;3.40;3.10;;;3.40;99.90;;;;;;5035639;28;20543;-85
2023/02/07 09:27:14;;;;;;;5.67;3.47;;;3.40;99.90;;;;;;5052677;28;20209;-85
2023/02/07 09:29:41;;;;;;;4.23;3.23;;;3.40;99.90;;;;;;5035267;28;20663;-84
2023/02/07 09:32:06;;;;;;;3.57;3.10;;;3.40;99.90;;;;;;5069308;28;20217;-85
2023/02/07 09:34:33;;;;;;;7.07;3.60;;;3.40;99.90;;;;;;5051878;28;20209;-86
2023/02/07 09:36:59;;;;;;;9.63;2.77;;;3.50;99.90;;;;;;5034938;28;20220;-85
2023/02/07 09:39:25;;;;;;;3.20;2.90;;;3.40;99.90;;;;;;5035417;28;20174;-86
2023/02/07 09:42:11;;;;;;;5.00;4.00;;;3.40;99.90;;;;;;5052355;28;20209;-86
2023/02/07 09:44:43;;;;;;;2.23;2.13;;;3.50;99.90;;;;;;5051679;28;20283;-87
2023/02/07 09:47:14;;;;;;;3.73;3.43;;;3.60;99.90;;;;;;5044084;28;20205;-85
2023/02/07 09:49:51;;;;;;;1.30;1.27;;;3.60;99.90;;;;;;5050947;28;20303;-87
2023/02/07 09:52:25;;;;;;;4.47;4.17;;;3.70;99.90;;;;;;5051750;28;20220;-84
2023/02/07 09:54:54;;;;;;;4.90;3.50;;;3.60;99.90;;;;;;5051912;28;20772;-85
2023/02/07 09:57:44;;;;;;;4.73;3.83;;;3.70;99.90;;;;;;5051285;28;20201;-86
2023/02/07 10:00:25;;;;;;;3.03;1.27;;;3.60;99.90;;;;;;5052248;28;20169;-86
2023/02/07 10:03:17;;;;;;;1.83;1.77;;;3.70;99.90;;;;;;5069194;28;20251;-85
2023/02/07 10:05:44;;;;;;;4.90;4.50;;;3.60;99.90;;;;;;5044657;28;20614;-85
2023/02/07 10:08:16;;;;;;;3.30;3.00;;;3.70;99.90;;;;;;5068463;28;20213;-86
2023/02/07 10:10:46;;;;;;;2.93;2.60;;;3.80;99.90;;;;;;5014921;28;1547927;-85
2023/02/07 10:13:20;;;;;;;3.43;3.13;;;3.70;99.90;;;;;;5052963;28;20209;-90
2023/02/07 10:15:46;;;;;;;5.03;2.90;;;3.80;99.90;;;;;;5052308;28;20234;-87
2023/02/07 10:18:15;;;;;;;3.47;3.17;;;3.90;99.90;;;;;;5053363;28;20181;-88
2023/02/07 10:21:18;;;;;;;3.40;3.20;;;4.10;99.90;;;;;;5051901;28;20221;-88
2023/02/07 10:23:50;;;;;;;5.30;3.37;;;4.10;99.90;;;;;;5051367;28;20216;-87
2023/02/07 10:26:35;;;;;;;4.23;2.97;;;4.20;99.90;;;;;;5050707;28;20209;-87
2023/02/07 10:29:04;;;;;;;13.77;2.30;;;4.20;99.90;;;;;;5052072;28;20209;-86
2023/02/07 10:31:34;;;;;;;2.20;2.07;;;4.20;99.90;;;;;;5052623;28;20308;-87
2023/02/07 10:34:22;;;;;;;2.80;2.53;;;4.20;99.90;;;;;;5051925;28;20353;-85
2023/02/07 10:36:50;;;;;;;2.93;2.33;;;4.40;99.90;;;;;;5051172;28;20217;-90
2023/02/07 10:39:23;;;;;;;5.00;3.70;;;4.40;99.90;;;;;;5050492;28;20197;-88
2023/02/07 10:41:54;;;;;;;4.97;3.43;;;4.50;99.90;;;;;;5051440;28;20779;-86
2023/02/07 10:44:20;;;;;;;5.60;4.90;;;4.50;99.90;;;;;;5051312;28;20224;-87
2023/02/07 10:46:57;;;;;;;5.37;4.97;;;4.50;99.90;;;;;;5018126;28;20690;-86
2023/02/07 10:49:26;;;;;;;3.63;3.33;;;4.50;99.90;;;;;;5051186;28;20220;-86
2023/02/07 10:51:56;;;;;;;4.03;3.50;;;4.60;99.90;;;;;;5051341;28;20221;-88
2023/02/07 10:54:23;;;;;;;5.93;3.20;;;4.60;99.90;;;;;;5051285;28;20242;-86
2023/02/07 10:56:55;;;;;;;3.50;3.20;;;4.50;99.90;;;;;;5019406;28;20181;-86
2023/02/07 10:59:33;;;;;;;3.67;3.47;;;4.50;99.90;;;;;;5051185;28;20598;-86
2023/02/07 11:01:59;;;;;;;6.33;3.57;;;4.60;99.90;;;;;;5044075;28;20740;-86
2023/02/07 11:04:36;;;;;;;5.77;2.80;;;4.50;99.90;;;;;;5050558;28;20213;-84
2023/02/07 11:07:05;;;;;;;3.10;2.90;;;4.50;99.90;;;;;;5069078;28;20209;-87
2023/02/07 11:09:35;;;;;;;5.70;5.20;;;4.50;99.90;;;;;;5050819;28;20169;-85
2023/02/07 11:12:24;;;;;;;5.47;3.93;;;4.60;99.90;;;;;;5019897;28;20259;-85
2023/02/07 11:15:46;;;;;;;4.20;3.30;;;4.60;99.90;;;;;;5051455;28;20219;-86
2023/02/07 11:18:36;;;;;;;3.90;2.97;;;4.80;99.90;;;;;;5024665;28;20254;-88
2023/02/07 11:21:05;;;;;;;7.10;3.30;;;4.90;99.90;;;;;;5051314;28;20353;-86
2023/02/07 11:23:30;;;;;;;3.47;3.17;;;5.00;99.90;;;;;;5051346;28;20225;-86
2023/02/07 11:25:56;;;;;;;4.63;2.63;;;5.10;99.90;;;;;;5033866;28;20209;-86
2023/02/07 11:28:26;;;;;;;2.77;2.53;;;5.00;99.90;;;;;;5034245;28;20225;-86
2023/02/07 11:31:16;;;;;;;3.00;2.77;;;5.00;99.90;;;;;;5050174;28;20220;-85
2023/02/07 11:33:42;;;;;;;7.77;3.63;;;5.10;99.90;;;;;;5033969;28;20212;-87
2023/02/07 11:36:27;;;;;;;5.27;4.73;;;5.40;99.90;;;;;;5051485;28;20180;-86
2023/02/07 11:38:58;;;;;;;4.73;4.30;;;5.80;99.90;;;;;;5069125;28;20725;-86
2023/02/07 11:41:24;;;;;;;3.20;3.00;;;6.40;99.90;;;;;;5050333;28;20213;-87
2023/02/07 11:44:24;;;;;;;5.33;3.30;;;7.20;99.90;;;;;;5049964;28;20678;-85
2023/02/07 11:46:51;;;;;;;6.37;4.13;;;7.30;99.90;;;;;;5007565;28;20233;-86
2023/02/07 11:49:26;;;;;;;5.93;5.03;;;7.20;99.90;;;;;;5027042;28;20304;-92
2023/02/07 11:51:55;;;;;;;4.47;4.10;;;7.30;99.90;;;;;;5050648;28;20223;-86
2023/02/07 11:54:21;;;;;;;4.63;3.67;;;7.60;99.90;;;;;;5050223;28;20176;-87
2023/02/07 11:57:03;;;;;;;3.10;2.83;;;7.60;99.90;;;;;;5069156;28;20219;-86
2023/02/07 11:59:29;;;;;;;4.33;3.93;;;7.60;99.90;;;;;;5068453;28;20442;-86
2023/02/07 12:01:58;;;;;;;6.93;3.53;;;7.90;99.90;;;;;;5033660;28;20765;-87
2023/02/07 12:04:27;;;;;;;3.30;2.97;;;7.80;99.90;;;;;;5050415;28;20240;-87
2023/02/07 12:07:07;;;;;;;6.80;3.90;;;7.70;99.90;;;;;;5050135;28;20278;-88
2023/02/07 12:09:51;;;;;;;3.60;3.40;;;7.40;99.90;;;;;;5050134;28;20230;-88
2023/02/07 12:12:42;;;;;;;10.80;4.57;;;7.10;99.90;;;;;;5050660;28;20220;-88
2023/02/07 12:15:24;;;;;;;8.53;3.23;;;6.90;99.90;;;;;;5050466;28;20192;-87
2023/02/07 12:18:09;;;;;;;3.03;2.83;;;6.60;99.90;;;;;;5050242;28;20221;-86
2023/02/07 12:20:46;;;;;;;2.43;2.13;;;6.30;99.90;;;;;;5049508;28;20237;-88
2023/02/07 12:23:21;;;;;;;6.23;3.93;;;6.00;99.90;;;;;;5067703;28;20232;-87
2023/02/07 12:26:20;;;;;;;8.10;4.93;;;5.90;99.90;;;;;;5049183;28;20209;-86
2023/02/07 12:28:53;;;;;;;6.10;3.13;;;5.90;99.90;;;;;;5049012;28;20295;-87
2023/02/07 12:31:36;;;;;;;5.50;2.77;;;6.10;99.90;;;;;;5068121;28;20232;-85
2023/02/07 12:34:13;;;;;;;5.87;3.87;;;6.10;99.90;;;;;;5050744;28;20209;-88
2023/02/07 12:36:46;;;;;;;7.67;5.30;;;6.20;99.90;;;;;;5050360;28;20286;-87
2023/02/07 12:39:46;;;;;;;4.67;4.17;;;6.10;99.90;;;;;;5050978;28;20162;-88
2023/02/07 12:42:38;;;;;;;4.00;2.90;;;6.10;99.90;;;;;;5004401;28;20228;-88
2023/02/07 12:45:06;;;;;;;2.70;2.03;;;6.00;99.90;;;;;;5051495;28;20524;-88
2023/02/07 12:48:04;;;;;;;3.37;3.07;;;5.80;99.90;;;;;;5037408;28;20212;-87
2023/02/07 12:50:49;;;;;;;2.30;2.10;;;5.80;99.90;;;;;;5052362;28;20279;-86
2023/02/07 12:53:23;;;;;;;6.27;5.60;;;5.70;99.90;;;;;;5054108;28;20229;-86
2023/02/07 12:56:04;;;;;;;3.17;2.90;;;5.90;99.90;;;;;;5053923;28;20220;-88
2023/02/07 12:59:18;;;;;;;3.27;3.07;;;6.10;99.90;;;;;;5052802;28;20482;-87
2023/02/07 13:02:02;;;;;;;12.63;5.57;;;6.00;99.90;;;;;;4968839;28;20261;-86
2023/02/07 13:04:37;;;;;;;3.97;3.43;;;6.00;99.90;;;;;;5044877;28;20369;-90
2023/02/07 13:07:27;;;;;;;6.90;4.83;;;6.10;99.90;;;;;;5054039;28;20331;-86
2023/02/07 13:10:12;;;;;;;4.83;3.93;;;6.00;99.90;;;;;;5052691;28;20296;-87
2023/02/07 13:12:57;;;;;;;4.33;3.90;;;5.90;99.90;;;;;;5053410;28;20833;-87